createdAt,value
2024-03-03T00:00:30.873Z,20.53
2024-03-03T00:02:03.853Z,22.30
2024-03-03T00:03:37.387Z,18.13
2024-03-03T00:05:09.516Z,21.00
2024-03-03T00:06:42.530Z,23.17
2024-03-03T00:08:14.468Z,21.48
2024-03-03T00:09:48.320Z,24.63
2024-03-03T00:11:21.745Z,21.80
2024-03-03T00:12:54.923Z,24.60
2024-03-03T00:14:26.978Z,19.52
2024-03-03T00:15:59.994Z,20.83
2024-03-03T00:17:31.989Z,20.83
2024-03-03T00:19:05.546Z,19.97
2024-03-03T00:20:37.530Z,21.67
2024-03-03T00:22:10.515Z,20.97
2024-03-03T00:23:42.821Z,23.42
2024-03-03T00:25:16.080Z,20.37
2024-03-03T00:28:22.733Z,20.95
2024-03-03T00:29:54.778Z,34.35
2024-03-03T00:31:27.970Z,25.60
2024-03-03T00:32:59.979Z,20.45
2024-03-03T00:34:32.893Z,23.13
2024-03-03T00:36:09.443Z,23.33
2024-03-03T00:37:41.422Z,23.80
2024-03-03T00:39:14.404Z,20.00
2024-03-03T00:40:46.540Z,21.45
2024-03-03T00:42:20.812Z,23.53
2024-03-03T00:43:52.763Z,22.97
2024-03-03T00:45:25.692Z,20.70
2024-03-03T00:46:57.641Z,25.67
2024-03-03T00:48:30.568Z,21.63
2024-03-03T00:50:02.662Z,21.55
2024-03-03T00:51:35.772Z,25.40
2024-03-03T00:53:08.799Z,21.08
2024-03-03T00:54:41.839Z,25.05
2024-03-03T00:56:13.853Z,20.50
2024-03-03T00:57:48.118Z,24.00
2024-03-03T00:59:20.056Z,23.60
2024-03-03T01:00:53.924Z,25.00
2024-03-03T01:02:25.972Z,24.97
2024-03-03T01:03:59.104Z,26.53
2024-03-03T01:05:31.129Z,21.98
2024-03-03T01:07:04.490Z,25.87
2024-03-03T01:10:09.850Z,25.77
2024-03-03T01:13:16.415Z,27.47
2024-03-03T01:14:48.619Z,30.43
2024-03-03T01:16:22.174Z,27.13
2024-03-03T01:17:54.174Z,26.13
2024-03-03T01:19:27.485Z,26.90
2024-03-03T01:22:32.445Z,25.00
2024-03-03T01:24:04.803Z,21.77
2024-03-03T01:25:37.764Z,25.17
2024-03-03T01:27:09.732Z,24.58
2024-03-03T01:28:44.121Z,25.07
2024-03-03T01:30:16.168Z,26.40
2024-03-03T01:31:49.113Z,27.83
2024-03-03T01:33:21.278Z,26.05
2024-03-03T01:34:55.368Z,25.20
2024-03-03T01:36:29.247Z,26.27
2024-03-03T01:38:01.341Z,24.20
2024-03-03T01:39:37.220Z,26.87
2024-03-03T01:41:09.749Z,27.50
2024-03-03T01:42:43.262Z,24.47
2024-03-03T01:44:16.695Z,24.33
2024-03-03T01:47:21.559Z,24.53
2024-03-03T01:48:54.909Z,27.70
2024-03-03T01:52:00.960Z,20.37
2024-03-03T01:53:34.091Z,22.80
2024-03-03T01:55:08.412Z,26.13
2024-03-03T01:56:44.825Z,24.77
2024-03-03T01:58:19.173Z,25.57
2024-03-03T01:59:53.564Z,24.57
2024-03-03T02:01:27.945Z,23.07
2024-03-03T02:03:02.348Z,25.37
2024-03-03T02:04:36.201Z,27.87
2024-03-03T02:06:08.853Z,25.00
2024-03-03T02:07:42.013Z,24.02
2024-03-03T02:09:14.083Z,23.27
2024-03-03T02:10:47.453Z,25.27
2024-03-03T02:13:52.421Z,22.53
2024-03-03T02:15:25.892Z,22.83
2024-03-03T02:16:58.844Z,22.17
2024-03-03T02:18:30.916Z,25.00
2024-03-03T02:20:05.700Z,24.57
2024-03-03T02:21:39.133Z,23.30
2024-03-03T02:24:44.207Z,24.13
2024-03-03T02:26:17.557Z,23.57
2024-03-03T02:27:49.819Z,24.42
2024-03-03T02:29:23.301Z,23.97
2024-03-03T02:32:28.153Z,22.20
2024-03-03T02:34:00.203Z,23.25
2024-03-03T02:35:39.158Z,23.53
2024-03-03T02:37:13.477Z,22.10
2024-03-03T02:38:51.932Z,27.03
2024-03-03T02:40:25.157Z,24.83
2024-03-03T02:41:57.190Z,27.23
2024-03-03T02:43:30.152Z,27.13
2024-03-03T02:45:02.112Z,26.55
2024-03-03T02:46:35.038Z,25.63
2024-03-03T02:48:08.763Z,29.23
2024-03-03T02:49:40.841Z,31.00
2024-03-03T02:51:13.839Z,30.83
2024-03-03T02:52:47.194Z,26.55
2024-03-03T02:55:52.007Z,25.73
2024-03-03T02:57:24.934Z,25.47
2024-03-03T02:58:56.897Z,23.67
2024-03-03T03:00:30.349Z,24.07
2024-03-03T03:03:35.330Z,21.00
2024-03-03T03:05:07.762Z,25.80
2024-03-03T03:06:40.718Z,26.17
2024-03-03T03:08:14.273Z,26.08
2024-03-03T03:09:47.483Z,27.40
2024-03-03T03:11:19.488Z,26.20
2024-03-03T03:12:52.485Z,31.30
2024-03-03T03:14:25.267Z,26.65
2024-03-03T03:15:58.266Z,26.70
2024-03-03T03:17:30.242Z,25.17
2024-03-03T03:19:03.205Z,26.27
2024-03-03T03:20:35.581Z,30.30
2024-03-03T03:22:08.635Z,26.40
2024-03-03T03:23:42.074Z,26.63
2024-03-03T03:26:46.903Z,23.57
2024-03-03T03:28:20.164Z,28.07
2024-03-03T03:29:52.250Z,26.50
2024-03-03T03:31:25.603Z,31.13
2024-03-03T03:34:30.921Z,27.23
2024-03-03T03:36:03.010Z,25.25
2024-03-03T03:37:36.165Z,28.03
2024-03-03T03:39:13.392Z,21.77
2024-03-03T03:40:46.656Z,26.57
2024-03-03T03:42:18.617Z,29.52
2024-03-03T03:43:51.704Z,30.73
2024-03-03T03:45:23.664Z,28.85
2024-03-03T03:46:56.586Z,29.30
2024-03-03T03:48:28.679Z,25.70
2024-03-03T03:50:01.688Z,26.17
2024-03-03T03:51:33.691Z,25.27
2024-03-03T03:53:06.763Z,25.70
2024-03-03T03:54:40.114Z,24.48
2024-03-03T03:57:44.933Z,21.43
2024-03-03T03:59:17.870Z,25.57
2024-03-03T04:00:49.958Z,24.15
2024-03-03T04:02:22.984Z,23.40
2024-03-03T04:03:55.490Z,24.00
2024-03-03T04:05:28.451Z,23.55
2024-03-03T04:07:00.435Z,22.33
2024-03-03T04:08:33.361Z,26.10
2024-03-03T04:10:08.691Z,21.77
2024-03-03T04:11:41.734Z,21.63
2024-03-03T04:13:13.962Z,21.48
2024-03-03T04:14:46.973Z,25.03
2024-03-03T04:16:19.591Z,20.23
2024-03-03T04:17:52.660Z,25.65
2024-03-03T04:19:24.725Z,24.23
2024-03-03T04:20:57.688Z,24.77
2024-03-03T04:22:30.658Z,29.83
2024-03-03T04:24:04.491Z,28.48
2024-03-03T04:25:38.230Z,23.97
2024-03-03T04:27:11.202Z,24.27
2024-03-03T04:28:44.270Z,26.90
2024-03-03T04:30:17.402Z,26.50
2024-03-03T04:31:49.433Z,27.95
2024-03-03T04:33:22.499Z,29.47
2024-03-03T04:34:54.455Z,34.35
2024-03-03T04:36:27.457Z,32.73
2024-03-03T04:37:59.420Z,25.88
2024-03-03T04:39:32.393Z,22.93
2024-03-03T04:41:13.774Z,27.73
2024-03-03T04:42:47.867Z,27.80
2024-03-03T04:44:19.891Z,31.77
2024-03-03T04:45:54.685Z,30.20
2024-03-03T04:47:28.000Z,31.00
2024-03-03T04:49:01.069Z,29.57
2024-03-03T04:50:34.243Z,29.55
2024-03-03T04:52:06.687Z,28.13
2024-03-03T04:53:39.655Z,25.13
2024-03-03T04:55:11.989Z,30.52
2024-03-03T04:56:46.340Z,30.00
2024-03-03T04:58:18.724Z,30.70
2024-03-03T04:59:51.713Z,30.07
2024-03-03T05:01:23.923Z,31.02
2024-03-03T05:02:57.017Z,27.00
2024-03-03T05:04:29.052Z,29.55
2024-03-03T05:06:02.547Z,27.53
2024-03-03T05:07:34.835Z,29.07
2024-03-03T05:09:10.780Z,25.27
2024-03-03T05:10:42.795Z,25.07
2024-03-03T05:12:17.186Z,29.70
2024-03-03T05:13:49.189Z,31.07
2024-03-03T05:15:22.131Z,28.07
2024-03-03T05:16:54.104Z,25.98
2024-03-03T05:18:27.157Z,31.73
2024-03-03T05:19:59.190Z,30.73
2024-03-03T05:21:32.130Z,29.67
2024-03-03T05:23:04.595Z,31.98
2024-03-03T05:24:37.641Z,33.92
2024-03-03T05:26:09.784Z,30.23
2024-03-03T05:27:44.139Z,24.37
2024-03-03T05:29:16.325Z,26.70
2024-03-03T05:30:49.361Z,25.37
2024-03-03T05:32:21.361Z,27.92
2024-03-03T05:33:54.297Z,29.37
2024-03-03T05:35:26.421Z,25.98
2024-03-03T05:36:59.464Z,26.73
2024-03-03T05:38:31.645Z,26.48
2024-03-03T05:40:05.096Z,29.40
2024-03-03T05:43:12.300Z,26.63
2024-03-03T05:44:44.462Z,25.37
2024-03-03T05:46:17.598Z,26.07
2024-03-03T05:47:50.590Z,27.27
2024-03-03T05:49:22.805Z,28.42
2024-03-03T05:50:56.480Z,27.33
2024-03-03T05:52:28.607Z,23.43
2024-03-03T05:54:02.673Z,26.17
2024-03-03T05:55:34.786Z,27.23
2024-03-03T05:57:07.933Z,34.57
2024-03-03T05:58:41.278Z,27.50
2024-03-03T06:01:50.164Z,29.13
2024-03-03T06:03:23.403Z,29.13
2024-03-03T06:04:56.353Z,25.20
2024-03-03T06:06:29.296Z,25.15
2024-03-03T06:08:03.469Z,28.63
2024-03-03T06:09:36.919Z,27.07
2024-03-03T06:12:41.878Z,26.67
2024-03-03T06:14:16.612Z,30.75
2024-03-03T06:15:49.543Z,29.17
2024-03-03T06:17:22.603Z,25.52
2024-03-03T06:18:54.622Z,29.63
2024-03-03T06:20:27.621Z,27.27
2024-03-03T06:21:59.615Z,29.70
2024-03-03T06:23:32.582Z,28.23
2024-03-03T06:25:04.902Z,28.98
2024-03-03T06:26:37.932Z,29.10
2024-03-03T06:28:10.034Z,30.75
2024-03-03T06:29:44.317Z,28.87
2024-03-03T06:31:16.361Z,29.10
2024-03-03T06:32:49.427Z,26.37
2024-03-03T06:34:21.551Z,32.30
2024-03-03T06:35:54.573Z,34.00
2024-03-03T06:37:27.528Z,27.65
2024-03-03T06:39:00.536Z,30.45
2024-03-03T06:40:32.620Z,28.75
2024-03-03T06:42:06.819Z,29.13
2024-03-03T06:43:38.749Z,27.30
2024-03-03T06:45:13.692Z,26.10
2024-03-03T06:46:46.704Z,21.93
2024-03-03T06:48:20.410Z,25.00
2024-03-03T06:49:53.407Z,27.63
2024-03-03T06:51:26.390Z,23.73
2024-03-03T06:52:58.441Z,22.80
2024-03-03T06:54:31.480Z,25.17
2024-03-03T06:56:03.715Z,26.83
2024-03-03T06:57:36.717Z,24.63
2024-03-03T06:59:08.644Z,26.17
2024-03-03T07:00:43.462Z,22.20
2024-03-03T07:02:15.513Z,21.57
2024-03-03T07:04:11.521Z,21.73
2024-03-03T07:05:43.759Z,22.07
2024-03-03T07:07:16.816Z,26.00
2024-03-03T07:08:48.845Z,23.98
2024-03-03T07:10:21.978Z,23.40
2024-03-03T07:11:56.212Z,22.27
2024-03-03T07:13:28.219Z,23.23
2024-03-03T07:15:01.324Z,23.67
2024-03-03T07:16:34.759Z,22.83
2024-03-03T07:18:08.709Z,22.47
2024-03-03T07:19:42.647Z,21.10
2024-03-03T07:21:14.820Z,20.43
2024-03-03T07:22:48.060Z,22.70
2024-03-03T07:24:20.111Z,22.15
2024-03-03T07:25:53.161Z,24.50
2024-03-03T07:27:25.248Z,21.10
2024-03-03T07:28:58.429Z,22.50
2024-03-03T07:30:31.813Z,21.48
2024-03-03T07:35:11.362Z,21.13
2024-03-03T07:36:43.346Z,19.83
2024-03-03T07:38:16.978Z,20.07
2024-03-03T07:39:49.078Z,22.67
2024-03-03T07:41:22.120Z,23.43
2024-03-03T07:42:54.119Z,21.85
2024-03-03T07:44:27.132Z,21.60
2024-03-03T07:46:00.064Z,24.92
2024-03-03T07:47:34.410Z,25.30
2024-03-03T07:49:06.585Z,24.90
2024-03-03T07:50:39.650Z,23.87
2024-03-03T07:52:11.789Z,24.48
2024-03-03T07:53:44.837Z,27.63
2024-03-03T07:55:16.851Z,27.92
2024-03-03T07:56:49.945Z,25.60
2024-03-03T07:58:21.969Z,24.30
2024-03-03T07:59:55.053Z,27.37
2024-03-03T08:01:33.978Z,23.88
2024-03-03T08:03:09.126Z,29.23
2024-03-03T08:04:42.612Z,27.63
2024-03-03T08:06:14.676Z,27.13
2024-03-03T08:07:47.632Z,24.63
2024-03-03T08:09:19.711Z,23.00
2024-03-03T08:10:52.696Z,23.37
2024-03-03T08:12:24.842Z,24.08
2024-03-03T08:13:58.056Z,25.05
2024-03-03T08:15:30.080Z,22.40
2024-03-03T08:17:03.291Z,23.70
2024-03-03T08:18:36.721Z,21.60
2024-03-03T08:21:45.371Z,24.60
2024-03-03T08:23:17.470Z,23.93
2024-03-03T08:24:50.518Z,20.90
2024-03-03T08:26:22.549Z,21.10
2024-03-03T08:28:02.545Z,20.27
2024-03-03T08:29:34.691Z,20.57
2024-03-03T08:31:07.979Z,23.93
2024-03-03T08:34:14.995Z,23.93
2024-03-03T08:35:47.019Z,19.97
2024-03-03T08:37:20.048Z,21.90
2024-03-03T08:38:52.080Z,18.40
2024-03-03T08:40:25.520Z,17.90
2024-03-03T08:41:58.146Z,16.83
2024-03-03T08:43:31.656Z,19.83
2024-03-03T08:45:04.205Z,16.42
2024-03-03T08:46:37.237Z,17.33
2024-03-03T08:48:09.303Z,15.98
2024-03-03T08:49:43.643Z,17.20
2024-03-03T08:51:16.654Z,17.13
2024-03-03T08:52:48.605Z,17.33
2024-03-03T08:54:21.571Z,18.85
2024-03-03T08:55:53.665Z,16.50
2024-03-03T08:57:26.687Z,19.30
2024-03-03T08:58:58.760Z,16.13
2024-03-03T09:00:31.750Z,17.15
2024-03-03T09:02:03.877Z,14.05
2024-03-03T09:03:37.576Z,15.88
2024-03-03T09:05:12.249Z,17.67
2024-03-03T09:06:45.327Z,15.40
2024-03-03T09:08:17.356Z,15.60
2024-03-03T09:09:51.025Z,16.20
2024-03-03T09:11:23.100Z,16.83
2024-03-03T09:12:56.051Z,14.05
2024-03-03T09:14:28.126Z,13.75
2024-03-03T09:16:05.404Z,12.63
2024-03-03T09:17:49.690Z,16.27
2024-03-03T09:19:25.517Z,15.15
2024-03-03T09:21:04.417Z,15.40
2024-03-03T09:22:38.044Z,12.80
2024-03-03T09:24:10.326Z,13.65
2024-03-03T09:25:46.046Z,13.75
2024-03-03T09:27:24.189Z,13.00
2024-03-03T09:28:59.818Z,13.60
2024-03-03T09:30:33.367Z,16.40
2024-03-03T09:32:06.464Z,12.02
2024-03-03T09:33:47.891Z,13.00
2024-03-03T09:35:23.247Z,11.68
2024-03-03T09:37:01.771Z,13.52
2024-03-03T09:38:41.988Z,12.32
2024-03-03T09:40:18.136Z,11.13
2024-03-03T09:42:01.912Z,13.25
2024-03-03T09:45:21.622Z,10.27
2024-03-03T09:46:59.484Z,12.38
2024-03-03T09:48:34.202Z,11.77
2024-03-03T09:50:13.671Z,13.10
2024-03-03T09:51:48.306Z,12.60
2024-03-03T09:53:25.329Z,10.23
2024-03-03T09:54:59.732Z,11.85
2024-03-03T09:56:46.293Z,10.77
2024-03-03T09:58:22.178Z,14.57
2024-03-03T09:59:54.760Z,14.02
2024-03-03T10:01:33.298Z,13.38
2024-03-03T10:03:11.971Z,14.95
2024-03-03T10:04:48.319Z,11.52
2024-03-03T10:06:26.442Z,12.30
2024-03-03T10:08:03.711Z,12.75
2024-03-03T10:09:42.761Z,13.02
2024-03-03T10:11:20.804Z,11.95
2024-03-03T10:12:55.286Z,12.07
2024-03-03T10:14:32.745Z,12.93
2024-03-03T10:16:07.527Z,11.00
2024-03-03T10:17:41.508Z,11.70
2024-03-03T10:19:15.645Z,11.45
2024-03-03T10:20:48.351Z,10.98
2024-03-03T10:22:27.656Z,13.48
2024-03-03T10:24:26.351Z,12.27
2024-03-03T10:26:01.568Z,11.57
2024-03-03T10:27:34.982Z,11.65
2024-03-03T10:29:08.318Z,12.55
2024-03-03T10:32:14.867Z,11.95
2024-03-03T10:33:56.538Z,12.02
2024-03-03T10:35:34.614Z,11.23
2024-03-03T10:37:10.354Z,15.05
2024-03-03T10:38:46.366Z,10.65
2024-03-03T10:40:28.938Z,11.43
2024-03-03T10:42:11.661Z,11.05
2024-03-03T10:43:45.480Z,11.15
2024-03-03T10:45:21.296Z,10.10
2024-03-03T10:46:55.317Z,12.43
2024-03-03T10:48:28.325Z,11.90
2024-03-03T10:50:06.207Z,14.70
2024-03-03T10:51:38.891Z,10.32
2024-03-03T10:53:14.821Z,12.30
2024-03-03T10:54:55.003Z,10.68
2024-03-03T10:56:30.841Z,10.88
2024-03-03T10:58:08.502Z,11.13
2024-03-03T10:59:47.926Z,11.65
2024-03-03T11:01:24.461Z,10.90
2024-03-03T11:03:02.092Z,9.57
2024-03-03T11:04:37.797Z,11.80
2024-03-03T11:06:11.856Z,11.40
2024-03-03T11:07:44.512Z,10.98
2024-03-03T11:09:18.327Z,10.85
2024-03-03T11:10:53.833Z,9.48
2024-03-03T11:12:28.537Z,10.88
2024-03-03T11:14:10.547Z,10.55
2024-03-03T11:15:49.093Z,10.05
2024-03-03T11:17:23.136Z,12.55
2024-03-03T11:19:02.403Z,9.98
2024-03-03T11:20:38.048Z,9.98
2024-03-03T11:22:15.560Z,12.23
2024-03-03T11:23:50.842Z,9.77
2024-03-03T11:25:24.925Z,10.23
2024-03-03T11:27:05.528Z,9.00
2024-03-03T11:28:44.124Z,11.35
2024-03-03T11:30:18.744Z,9.60
2024-03-03T11:31:51.066Z,10.45
2024-03-03T11:33:25.057Z,11.80
2024-03-03T11:34:59.094Z,11.45
2024-03-03T11:36:32.737Z,10.20
2024-03-03T11:38:06.115Z,10.73
2024-03-03T11:39:39.114Z,11.07
2024-03-03T11:41:12.652Z,8.35
2024-03-03T11:42:47.390Z,10.13
2024-03-03T11:44:51.921Z,9.35
2024-03-03T11:46:50.931Z,11.40
2024-03-03T11:48:24.318Z,9.60
2024-03-03T11:49:56.948Z,10.98
2024-03-03T11:51:31.494Z,11.05
2024-03-03T11:53:03.574Z,10.30
2024-03-03T11:54:42.471Z,10.10
2024-03-03T11:56:19.005Z,9.02
2024-03-03T11:57:52.844Z,9.27
2024-03-03T11:59:26.070Z,9.82
2024-03-03T12:02:43.159Z,10.32
2024-03-03T12:04:16.912Z,9.32
2024-03-03T12:05:51.565Z,8.82
2024-03-03T12:07:24.852Z,10.90
2024-03-03T12:09:02.545Z,10.63
2024-03-03T12:10:35.912Z,9.35
2024-03-03T12:12:08.064Z,9.57
2024-03-03T12:13:41.055Z,8.68
2024-03-03T12:15:18.794Z,9.60
2024-03-03T12:16:51.877Z,7.97
2024-03-03T12:18:27.424Z,8.98
2024-03-03T12:20:00.385Z,8.68
2024-03-03T12:21:33.832Z,9.80
2024-03-03T12:23:07.574Z,8.30
2024-03-03T12:24:42.223Z,8.63
2024-03-03T12:26:15.265Z,9.27
2024-03-03T12:29:20.789Z,8.23
2024-03-03T12:32:26.676Z,7.68
2024-03-03T12:34:01.415Z,7.97
2024-03-03T12:35:34.091Z,9.65
2024-03-03T12:37:07.174Z,7.68
2024-03-03T12:38:39.506Z,7.55
2024-03-03T12:40:15.290Z,8.05
2024-03-03T12:41:47.488Z,6.10
2024-03-03T12:43:21.046Z,8.07
2024-03-03T12:44:56.316Z,8.55
2024-03-03T12:46:33.508Z,7.07
2024-03-03T12:48:07.918Z,7.38
2024-03-03T12:49:42.913Z,7.22
2024-03-03T12:51:15.082Z,7.85
2024-03-03T12:52:49.338Z,6.45
2024-03-03T12:54:21.557Z,6.57
2024-03-03T12:55:54.700Z,7.22
2024-03-03T12:57:28.871Z,6.20
2024-03-03T12:59:02.014Z,7.45
2024-03-03T13:00:35.163Z,8.13
2024-03-03T13:03:47.367Z,7.47
2024-03-03T13:05:23.914Z,8.27
2024-03-03T13:06:58.513Z,8.90
2024-03-03T13:08:32.780Z,8.60
2024-03-03T13:10:15.424Z,7.97
2024-03-03T13:11:48.516Z,7.82
2024-03-03T13:13:22.197Z,8.32
2024-03-03T13:14:55.459Z,7.18
2024-03-03T13:18:09.855Z,7.47
2024-03-03T13:19:46.160Z,7.13
2024-03-03T13:21:20.570Z,7.40
2024-03-03T13:23:10.542Z,6.60
2024-03-03T13:24:56.419Z,7.68
2024-03-03T13:26:29.420Z,7.80
2024-03-03T13:28:06.704Z,11.73
2024-03-03T13:29:43.216Z,9.55
2024-03-03T13:31:18.957Z,7.07
2024-03-03T13:32:52.319Z,7.10
2024-03-03T13:34:28.228Z,7.47
2024-03-03T13:36:04.689Z,8.20
2024-03-03T13:37:41.519Z,7.57
2024-03-03T13:39:14.960Z,8.40
2024-03-03T13:40:50.556Z,8.43
2024-03-03T13:42:26.856Z,9.50
2024-03-03T13:44:02.488Z,11.38
2024-03-03T13:45:36.187Z,8.10
2024-03-03T13:47:18.502Z,7.90
2024-03-03T13:48:51.533Z,8.48
2024-03-03T13:50:23.486Z,7.80
2024-03-03T13:51:56.562Z,8.48
2024-03-03T13:53:30.942Z,7.72
2024-03-03T13:55:02.915Z,7.70
2024-03-03T13:56:35.933Z,7.28
2024-03-03T13:58:09.138Z,8.95
2024-03-03T14:01:17.547Z,7.18
2024-03-03T14:02:50.036Z,7.22
2024-03-03T14:04:23.081Z,7.47
2024-03-03T14:05:55.128Z,7.60
2024-03-03T14:07:28.201Z,6.82
2024-03-03T14:09:01.834Z,7.65
2024-03-03T14:10:35.099Z,6.50
2024-03-03T14:12:09.262Z,8.80
2024-03-03T14:13:42.288Z,6.85
2024-03-03T14:15:14.578Z,6.55
2024-03-03T14:16:47.673Z,7.93
2024-03-03T14:18:20.147Z,8.02
2024-03-03T14:19:54.356Z,7.70
2024-03-03T14:21:26.524Z,7.63
2024-03-03T14:22:59.641Z,8.80
2024-03-03T14:24:33.190Z,8.13
2024-03-03T14:26:06.879Z,9.18
2024-03-03T14:27:39.588Z,7.95
2024-03-03T14:29:13.341Z,6.93
2024-03-03T14:30:45.952Z,7.25
2024-03-03T14:32:19.071Z,7.40
2024-03-03T14:33:51.248Z,7.38
2024-03-03T14:35:24.285Z,6.90
2024-03-03T14:36:56.518Z,8.15
2024-03-03T14:38:29.554Z,9.63
2024-03-03T14:40:03.494Z,10.23
2024-03-03T14:41:37.593Z,7.20
2024-03-03T14:43:09.681Z,7.28
2024-03-03T14:44:42.669Z,7.85
2024-03-03T14:46:14.843Z,8.15
2024-03-03T14:47:48.053Z,8.02
2024-03-03T14:50:53.868Z,8.48
2024-03-03T14:52:26.177Z,8.07
2024-03-03T14:53:59.342Z,8.77
2024-03-03T14:55:32.933Z,7.10
2024-03-03T14:57:06.638Z,9.05
2024-03-03T14:58:39.215Z,8.57
2024-03-03T15:00:13.894Z,7.75
2024-03-03T15:01:46.252Z,7.45
2024-03-03T15:03:19.313Z,7.35
2024-03-03T15:04:51.918Z,9.27
2024-03-03T15:06:24.959Z,8.90
2024-03-03T15:07:57.244Z,9.18
2024-03-03T15:09:30.428Z,7.93
2024-03-03T15:11:04.998Z,8.23
2024-03-03T15:12:37.013Z,7.63
2024-03-03T15:14:11.438Z,6.85
2024-03-03T15:15:43.421Z,7.85
2024-03-03T15:17:20.849Z,7.03
2024-03-03T15:18:54.387Z,6.63
2024-03-03T15:20:26.455Z,6.70
2024-03-03T15:21:59.433Z,7.35
2024-03-03T15:23:31.730Z,7.68
2024-03-03T15:25:05.432Z,6.50
2024-03-03T15:26:40.996Z,6.43
2024-03-03T15:28:13.121Z,7.30
2024-03-03T15:29:46.381Z,7.25
2024-03-03T15:32:51.264Z,7.85
2024-03-03T15:34:24.472Z,7.25
2024-03-03T15:37:32.648Z,6.35
2024-03-03T15:39:04.939Z,6.00
2024-03-03T15:40:37.960Z,5.90
2024-03-03T15:42:11.356Z,8.18
2024-03-03T15:43:46.805Z,6.88
2024-03-03T15:45:18.849Z,7.65
2024-03-03T15:46:51.780Z,7.20
2024-03-03T15:48:23.935Z,7.90
2024-03-03T15:49:56.884Z,7.53
2024-03-03T15:51:29.296Z,7.97
2024-03-03T15:53:02.253Z,8.73
2024-03-03T15:54:34.254Z,7.15
2024-03-03T15:56:08.008Z,6.97
2024-03-03T15:57:42.001Z,8.75
2024-03-03T15:59:15.280Z,6.07
2024-03-03T16:02:22.174Z,6.40
2024-03-03T16:03:56.013Z,7.60
2024-03-03T16:05:28.080Z,9.43
2024-03-03T16:07:01.521Z,7.20
2024-03-03T16:08:33.625Z,7.57
2024-03-03T16:10:08.036Z,7.50
2024-03-03T16:11:40.080Z,7.70
2024-03-03T16:13:14.417Z,10.10
2024-03-03T16:14:46.418Z,8.30
2024-03-03T16:16:20.904Z,9.13
2024-03-03T16:17:53.672Z,10.40
2024-03-03T16:19:26.656Z,10.63
2024-03-03T16:20:58.788Z,9.45
2024-03-03T16:22:31.900Z,7.85
2024-03-03T16:24:04.883Z,12.77
2024-03-03T16:25:38.237Z,11.13
2024-03-03T16:27:12.402Z,7.53
2024-03-03T16:28:46.882Z,6.65
2024-03-03T16:30:20.005Z,9.05
2024-03-03T16:31:53.160Z,7.10
2024-03-03T16:33:26.348Z,7.25
2024-03-03T16:36:32.193Z,6.47
2024-03-03T16:38:06.432Z,7.13
2024-03-03T16:39:38.449Z,8.25
2024-03-03T16:41:11.480Z,7.57
2024-03-03T16:42:54.085Z,6.88
2024-03-03T16:44:28.430Z,7.32
2024-03-03T16:46:00.658Z,8.55
2024-03-03T16:47:33.984Z,6.63
2024-03-03T16:49:06.675Z,7.55
2024-03-03T16:50:39.790Z,8.48
2024-03-03T16:52:12.813Z,9.13
2024-03-03T16:53:45.040Z,8.50
2024-03-03T16:55:18.431Z,6.68
2024-03-03T16:56:50.826Z,8.25
2024-03-03T16:58:25.124Z,10.13
2024-03-03T16:59:58.429Z,10.50
2024-03-03T17:03:04.251Z,7.22
2024-03-03T17:04:37.350Z,7.78
2024-03-03T17:06:09.530Z,7.00
2024-03-03T17:07:44.151Z,8.40
2024-03-03T17:09:17.259Z,10.00
2024-03-03T17:10:49.399Z,8.50
2024-03-03T17:12:22.619Z,9.02
2024-03-03T17:13:55.163Z,8.90
2024-03-03T17:15:29.633Z,8.77
2024-03-03T17:17:01.683Z,8.35
2024-03-03T17:18:35.241Z,8.85
2024-03-03T17:20:10.108Z,6.15
2024-03-03T17:21:43.242Z,8.00
2024-03-03T17:23:17.341Z,9.48
2024-03-03T17:24:50.373Z,13.60
2024-03-03T17:26:23.958Z,10.23
2024-03-03T17:27:56.953Z,11.57
2024-03-03T17:29:28.970Z,7.07
2024-03-03T17:31:03.338Z,8.23
2024-03-03T17:32:35.532Z,9.45
2024-03-03T17:34:08.703Z,7.97
2024-03-03T17:35:40.943Z,11.95
2024-03-03T17:37:13.959Z,11.55
2024-03-03T17:38:46.084Z,9.85
2024-03-03T17:40:19.616Z,10.30
2024-03-03T17:41:51.737Z,8.57
2024-03-03T17:43:24.792Z,8.55
2024-03-03T17:44:56.937Z,8.48
2024-03-03T17:46:33.078Z,10.15
2024-03-03T17:48:07.019Z,9.18
2024-03-03T17:49:39.775Z,9.68
2024-03-03T17:51:12.729Z,9.27
2024-03-03T17:52:45.170Z,8.52
2024-03-03T17:54:18.684Z,10.43
2024-03-03T17:55:52.297Z,10.52
2024-03-03T17:57:25.257Z,10.43
2024-03-03T17:58:57.373Z,8.77
2024-03-03T18:00:30.396Z,11.32
2024-03-03T18:02:04.116Z,12.85
2024-03-03T18:03:37.239Z,11.52
2024-03-03T18:05:09.942Z,11.98
2024-03-03T18:06:42.975Z,14.48
2024-03-03T18:08:15.035Z,11.80
2024-03-03T18:09:50.153Z,12.13
2024-03-03T18:11:22.393Z,12.95
2024-03-03T18:12:56.368Z,10.82
2024-03-03T18:14:28.508Z,11.80
2024-03-03T18:16:06.143Z,11.38
2024-03-03T18:17:40.288Z,13.90
2024-03-03T18:19:13.453Z,12.73
2024-03-03T18:20:45.542Z,13.93
2024-03-03T18:22:20.153Z,11.93
2024-03-03T18:23:52.236Z,13.40
2024-03-03T18:25:25.292Z,12.55
2024-03-03T18:26:57.532Z,11.07
2024-03-03T18:28:30.632Z,12.55
2024-03-03T18:30:02.995Z,12.30
2024-03-03T18:31:36.123Z,13.27
2024-03-03T18:33:09.695Z,12.82
2024-03-03T18:34:42.848Z,11.35
2024-03-03T18:36:15.271Z,12.73
2024-03-03T18:37:48.494Z,12.10
2024-03-03T18:39:24.225Z,13.50
2024-03-03T18:40:57.721Z,12.63
2024-03-03T18:42:29.886Z,12.73
2024-03-03T18:44:02.854Z,16.83
2024-03-03T18:45:36.055Z,13.20
2024-03-03T18:47:09.103Z,13.82
2024-03-03T18:48:43.554Z,11.82
2024-03-03T18:50:21.477Z,13.52
2024-03-03T18:51:56.307Z,13.73
2024-03-03T18:53:29.737Z,11.60
2024-03-03T18:55:01.753Z,12.82
2024-03-03T18:56:34.825Z,13.52
2024-03-03T18:58:06.956Z,12.73
2024-03-03T18:59:41.387Z,14.40
2024-03-03T19:01:13.774Z,15.93
2024-03-03T19:02:46.948Z,13.57
2024-03-03T19:04:20.410Z,16.75
2024-03-03T19:05:53.428Z,15.73
2024-03-03T19:07:25.430Z,12.65
2024-03-03T19:08:58.465Z,16.52
2024-03-03T19:10:31.006Z,14.27
2024-03-03T19:12:04.112Z,13.90
2024-03-03T19:13:38.292Z,16.52
2024-03-03T19:15:11.796Z,15.60
2024-03-03T19:16:43.803Z,13.95
2024-03-03T19:18:16.996Z,12.85
2024-03-03T19:19:51.014Z,14.35
2024-03-03T19:21:24.041Z,13.05
2024-03-03T19:22:59.755Z,15.00
2024-03-03T19:24:33.466Z,16.58
2024-03-03T19:26:05.659Z,14.80
2024-03-03T19:27:39.004Z,13.10
2024-03-03T19:30:44.050Z,14.43
2024-03-03T19:32:17.085Z,15.20
2024-03-03T19:33:50.515Z,13.13
2024-03-03T19:35:25.000Z,15.50
2024-03-03T19:36:58.204Z,15.35
2024-03-03T19:40:04.972Z,14.88
2024-03-03T19:41:38.252Z,14.38
2024-03-03T19:43:10.983Z,12.93
2024-03-03T19:44:44.015Z,16.15
2024-03-03T19:46:16.048Z,13.45
2024-03-03T19:47:49.551Z,13.57
2024-03-03T19:49:21.751Z,14.35
2024-03-03T19:50:56.144Z,17.23
2024-03-03T19:52:29.936Z,14.65
2024-03-03T19:54:01.960Z,14.98
2024-03-03T19:55:34.975Z,17.05
2024-03-03T19:57:07.086Z,16.23
2024-03-03T19:58:40.090Z,15.60
2024-03-03T20:00:15.489Z,18.02
2024-03-03T20:01:48.995Z,14.95
2024-03-03T20:03:22.164Z,15.27
2024-03-03T20:04:55.172Z,14.10
2024-03-03T20:06:29.474Z,16.30
2024-03-03T20:08:04.723Z,14.73
2024-03-03T20:09:40.294Z,15.70
2024-03-03T20:11:13.322Z,14.68
2024-03-03T20:12:45.293Z,15.90
2024-03-03T20:14:18.228Z,14.63
2024-03-03T20:15:52.289Z,18.35
2024-03-03T20:17:24.290Z,13.52
2024-03-03T20:18:57.345Z,16.13
2024-03-03T20:20:29.443Z,18.58
2024-03-03T20:22:04.061Z,15.20
2024-03-03T20:23:36.281Z,15.30
2024-03-03T20:25:09.898Z,14.13
2024-03-03T20:26:41.996Z,15.80
2024-03-03T20:28:15.000Z,16.08
2024-03-03T20:29:46.967Z,17.95
2024-03-03T20:31:21.637Z,14.98
2024-03-03T20:32:53.854Z,16.65
2024-03-03T20:34:26.890Z,15.23
2024-03-03T20:35:59.496Z,16.95
2024-03-03T20:37:34.629Z,16.27
2024-03-03T20:39:07.105Z,15.68
2024-03-03T20:40:40.247Z,19.17
2024-03-03T20:42:12.376Z,15.25
2024-03-03T20:43:46.600Z,15.75
2024-03-03T20:45:18.708Z,17.00
2024-03-03T20:46:52.412Z,15.45
2024-03-03T20:48:25.468Z,15.65
2024-03-03T20:49:57.489Z,17.00
2024-03-03T20:51:30.492Z,18.83
2024-03-03T20:53:05.123Z,17.58
2024-03-03T20:54:38.119Z,17.38
2024-03-03T20:56:10.350Z,17.17
2024-03-03T20:57:43.479Z,19.70
2024-03-03T20:59:16.445Z,15.38
2024-03-03T21:00:48.468Z,19.02
2024-03-03T21:02:21.498Z,17.92
2024-03-03T21:03:54.519Z,18.23
2024-03-03T21:05:27.071Z,16.23
2024-03-03T21:07:00.348Z,23.13
2024-03-03T21:08:34.004Z,17.65
2024-03-03T21:10:09.628Z,17.88
2024-03-03T21:11:42.294Z,19.30
2024-03-03T21:13:15.345Z,17.48
2024-03-03T21:14:49.985Z,16.40
2024-03-03T21:16:23.128Z,20.60